createdAt,value
2023-03-17T00:00:14.191Z,18.2
2023-03-17T00:01:27.464Z,18.2
2023-03-17T00:02:40.182Z,18.22
2023-03-17T00:03:43.982Z,18.19
2023-03-17T00:04:56.668Z,18.23
2023-03-17T00:06:09.973Z,18.17
2023-03-17T00:07:22.709Z,18.19
2023-03-17T00:08:26.475Z,18.2
2023-03-17T00:09:39.166Z,18.19
2023-03-17T00:10:52.443Z,18.17
2023-03-17T00:11:55.188Z,18.19
2023-03-17T00:13:08.477Z,18.16
2023-03-17T00:14:21.159Z,18.17
2023-03-17T00:15:35.059Z,18.17
2023-03-17T00:16:37.900Z,18.16
2023-03-17T00:17:51.442Z,18.16
2023-03-17T00:19:04.157Z,18.17
2023-03-17T00:20:07.456Z,18.17
2023-03-17T00:21:20.103Z,18.17
2023-03-17T00:22:33.484Z,18.16
2023-03-17T00:23:36.204Z,18.14
2023-03-17T00:24:49.454Z,18.1
2023-03-17T00:26:02.156Z,18.17
2023-03-17T00:27:05.515Z,18.12
2023-03-17T00:28:20.865Z,18.14
2023-03-17T00:29:34.487Z,18.13
2023-03-17T00:30:37.209Z,18.13
2023-03-17T00:31:50.457Z,18.12
2023-03-17T00:33:03.152Z,18.1
2023-03-17T00:34:06.989Z,18.12
2023-03-17T00:35:19.644Z,18.12
2023-03-17T00:36:33.001Z,18.12
2023-03-17T00:37:35.888Z,18.12
2023-03-17T00:38:49.490Z,18.1
2023-03-17T00:41:19.521Z,18.1
2023-03-17T00:42:25.711Z,18.1
2023-03-17T00:43:30.707Z,18.1
2023-03-17T00:44:43.528Z,18.09
2023-03-17T00:45:46.948Z,18.09
2023-03-17T00:46:59.647Z,18.07
2023-03-17T00:48:12.964Z,18.07
2023-03-17T00:50:32.272Z,18.1
2023-03-17T00:51:45.301Z,18.1
2023-03-17T00:52:48.981Z,18.09
2023-03-17T00:54:02.515Z,18.1
2023-03-17T00:55:15.960Z,18.07
2023-03-17T00:56:18.680Z,18.07
2023-03-17T00:57:31.986Z,18.09
2023-03-17T00:58:44.645Z,18.07
2023-03-17T00:59:48.494Z,18.07
2023-03-17T01:01:01.240Z,18.07
2023-03-17T01:02:15.024Z,18.06
2023-03-17T01:03:17.807Z,18.04
2023-03-17T01:04:31.501Z,18.06
2023-03-17T01:05:44.392Z,18.04
2023-03-17T01:06:57.952Z,18.03
2023-03-17T01:08:00.760Z,18.07
2023-03-17T01:09:14.473Z,18.02
2023-03-17T01:10:27.189Z,18.04
2023-03-17T01:11:33.633Z,18.06
2023-03-17T01:12:46.457Z,18.04
2023-03-17T01:13:49.981Z,18.03
2023-03-17T01:15:02.619Z,18.03
2023-03-17T01:16:16.085Z,18.02
2023-03-17T01:17:18.834Z,18.03
2023-03-17T01:18:32.508Z,18.02
2023-03-17T01:19:45.180Z,18.03
2023-03-17T01:20:48.972Z,18.0
2023-03-17T01:22:01.613Z,18.0
2023-03-17T01:23:14.990Z,18.04
2023-03-17T01:24:17.711Z,18.02
2023-03-17T01:25:30.980Z,18.03
2023-03-17T01:26:40.237Z,18.0
2023-03-17T01:27:56.700Z,18.02
2023-03-17T01:28:59.572Z,18.02
2023-03-17T01:30:12.978Z,18.0
2023-03-17T01:32:46.360Z,18.04
2023-03-17T01:33:40.667Z,18.0
2023-03-17T01:34:54.239Z,18.02
2023-03-17T01:35:56.964Z,18.03
2023-03-17T01:37:10.718Z,18.04
2023-03-17T01:38:23.392Z,18.03
2023-03-17T01:39:36.810Z,18.03
2023-03-17T01:40:39.895Z,18.03
2023-03-17T01:41:53.224Z,18.03
2023-03-17T01:43:05.866Z,18.0
2023-03-17T01:44:09.228Z,18.02
2023-03-17T01:45:21.894Z,18.0
2023-03-17T01:46:35.199Z,18.02
2023-03-17T01:47:37.920Z,17.99
2023-03-17T01:48:51.222Z,18.02
2023-03-17T01:50:03.883Z,18.0
2023-03-17T01:51:17.201Z,17.99
2023-03-17T01:52:19.932Z,18.0
2023-03-17T01:53:33.191Z,17.97
2023-03-17T01:54:45.856Z,17.99
2023-03-17T01:55:49.207Z,18.02
2023-03-17T01:57:01.934Z,17.97
2023-03-17T01:58:15.202Z,18.0
2023-03-17T01:59:27.851Z,17.96
2023-03-17T02:00:31.721Z,17.99
2023-03-17T02:01:44.611Z,17.96
2023-03-17T02:02:58.234Z,17.97
2023-03-17T02:04:01.043Z,17.99
2023-03-17T02:05:14.737Z,17.96
2023-03-17T02:06:27.406Z,17.97
2023-03-17T02:07:30.688Z,17.96
2023-03-17T02:08:43.331Z,17.97
2023-03-17T02:09:57.508Z,17.96
2023-03-17T02:11:02.585Z,17.94
2023-03-17T02:12:16.197Z,17.94
2023-03-17T02:13:28.876Z,17.93
2023-03-17T02:14:32.261Z,17.96
2023-03-17T02:15:44.908Z,17.94
2023-03-17T02:16:58.226Z,17.96
2023-03-17T02:18:01.039Z,17.96
2023-03-17T02:19:14.707Z,17.96
2023-03-17T02:20:27.809Z,17.97
2023-03-17T02:21:41.746Z,17.99
2023-03-17T02:22:44.494Z,17.96
2023-03-17T02:23:57.690Z,17.96
2023-03-17T02:25:10.352Z,17.92
2023-03-17T02:26:13.711Z,17.96
2023-03-17T02:27:26.392Z,17.93
2023-03-17T02:28:39.765Z,17.94
2023-03-17T02:29:42.515Z,17.93
2023-03-17T02:30:56.293Z,17.93
2023-03-17T02:32:08.990Z,17.94
2023-03-17T02:33:22.705Z,17.94
2023-03-17T02:34:25.421Z,17.94
2023-03-17T02:35:38.718Z,17.94
2023-03-17T02:36:51.439Z,17.94
2023-03-17T02:37:55.212Z,17.92
2023-03-17T02:39:07.889Z,17.92
2023-03-17T02:40:21.234Z,17.92
2023-03-17T02:41:23.941Z,17.93
2023-03-17T02:42:37.720Z,17.94
2023-03-17T02:43:50.390Z,17.9
2023-03-17T02:45:03.714Z,17.9
2023-03-17T02:46:06.445Z,17.92
2023-03-17T02:47:20.233Z,17.92
2023-03-17T02:48:32.900Z,17.92
2023-03-17T02:49:36.234Z,17.9
2023-03-17T02:50:48.915Z,17.92
2023-03-17T02:52:02.198Z,17.93
2023-03-17T02:53:04.907Z,17.92
2023-03-17T02:54:18.224Z,17.92
2023-03-17T02:55:30.899Z,17.92
2023-03-17T02:56:44.234Z,17.9
2023-03-17T02:57:46.973Z,17.89
2023-03-17T02:59:00.709Z,17.9
2023-03-17T03:00:13.399Z,17.89
2023-03-17T03:01:17.236Z,17.89
2023-03-17T03:02:29.908Z,17.87
2023-03-17T03:03:43.230Z,17.9
2023-03-17T03:04:45.992Z,17.89
2023-03-17T03:06:00.974Z,17.87
2023-03-17T03:07:04.877Z,17.87
2023-03-17T03:08:18.257Z,17.87
2023-03-17T03:09:30.948Z,17.87
2023-03-17T03:10:44.223Z,17.89
2023-03-17T03:11:46.930Z,17.86
2023-03-17T03:13:00.263Z,17.89
2023-03-17T03:14:12.922Z,17.86
2023-03-17T03:15:26.248Z,17.87
2023-03-17T03:16:29.077Z,17.85
2023-03-17T03:17:42.777Z,17.85
2023-03-17T03:18:55.441Z,17.87
2023-03-17T03:19:58.732Z,17.86
2023-03-17T03:21:11.430Z,17.87
2023-03-17T03:22:24.761Z,17.85
2023-03-17T03:23:27.592Z,17.87
2023-03-17T03:24:41.224Z,17.87
2023-03-17T03:25:54.017Z,17.83
2023-03-17T03:27:08.526Z,17.85
2023-03-17T03:28:13.591Z,17.87
2023-03-17T03:29:27.223Z,17.86
2023-03-17T03:30:30.070Z,17.85
2023-03-17T03:31:43.725Z,17.86
2023-03-17T03:32:56.434Z,17.86
2023-03-17T03:34:00.261Z,17.86
2023-03-17T03:35:12.946Z,17.83
2023-03-17T03:36:26.257Z,17.85
2023-03-17T03:37:29.015Z,17.85
2023-03-17T03:38:42.725Z,17.85
2023-03-17T03:39:55.391Z,17.83
2023-03-17T03:41:08.742Z,17.83
2023-03-17T03:42:11.451Z,17.85
2023-03-17T03:43:24.850Z,17.86
2023-03-17T03:44:37.562Z,17.87
2023-03-17T03:45:41.278Z,17.85
2023-03-17T03:46:54.069Z,17.83
2023-03-17T03:48:07.765Z,17.86
2023-03-17T03:49:10.467Z,17.85
2023-03-17T03:50:23.753Z,17.83
2023-03-17T03:51:36.448Z,17.85
2023-03-17T03:52:49.744Z,17.86
2023-03-17T03:53:52.565Z,17.83
2023-03-17T03:55:06.254Z,17.83
2023-03-17T03:56:18.952Z,17.85
2023-03-17T03:57:22.772Z,17.86
2023-03-17T03:58:35.429Z,17.82
2023-03-17T03:59:48.743Z,17.85
2023-03-17T04:00:51.474Z,17.82
2023-03-17T04:02:04.751Z,17.85
2023-03-17T04:04:44.878Z,17.85
2023-03-17T04:05:37.701Z,17.82
2023-03-17T04:06:51.296Z,17.83
2023-03-17T04:07:54.008Z,17.85
2023-03-17T04:09:07.331Z,17.85
2023-03-17T04:10:20.009Z,17.86
2023-03-17T04:11:23.342Z,17.86
2023-03-17T04:12:36.012Z,17.86
2023-03-17T04:13:49.343Z,17.86
2023-03-17T04:14:52.061Z,17.82
2023-03-17T04:16:05.383Z,17.83
2023-03-17T04:17:18.139Z,17.83
2023-03-17T04:18:31.848Z,17.83
2023-03-17T04:19:34.580Z,17.82
2023-03-17T04:20:48.316Z,17.83
2023-03-17T04:22:01.027Z,17.83
2023-03-17T04:23:04.342Z,17.8
2023-03-17T04:24:16.980Z,17.83
2023-03-17T04:25:30.905Z,17.79
2023-03-17T04:26:33.805Z,17.83
2023-03-17T04:27:47.314Z,17.82
2023-03-17T04:28:59.968Z,17.8
2023-03-17T04:30:03.355Z,17.8
2023-03-17T04:31:16.090Z,17.8
2023-03-17T04:32:29.857Z,17.8
2023-03-17T04:33:32.620Z,17.83
2023-03-17T04:34:45.839Z,17.79
2023-03-17T04:35:58.649Z,17.79
2023-03-17T04:37:12.320Z,17.8
2023-03-17T04:38:15.035Z,17.8
2023-03-17T04:39:28.346Z,17.79
2023-03-17T04:40:41.039Z,17.79
2023-03-17T04:41:44.347Z,17.78
2023-03-17T04:42:57.046Z,17.8
2023-03-17T04:44:10.834Z,17.8
2023-03-17T04:45:13.786Z,17.76
2023-03-17T04:46:37.497Z,17.79
2023-03-17T04:47:40.263Z,17.79
2023-03-17T04:48:43.854Z,17.78
2023-03-17T04:49:56.566Z,17.8
2023-03-17T04:51:11.803Z,17.79
2023-03-17T04:52:14.782Z,17.79
2023-03-17T04:53:28.374Z,17.79
2023-03-17T04:54:41.182Z,17.78
2023-03-17T04:55:44.858Z,17.8
2023-03-17T04:56:57.510Z,17.8
2023-03-17T04:58:15.528Z,17.79
2023-03-17T04:59:13.968Z,17.79
2023-03-17T05:00:27.370Z,17.8
2023-03-17T05:01:40.123Z,17.78
2023-03-17T05:02:53.339Z,17.79
2023-03-17T05:03:56.124Z,17.78
2023-03-17T05:05:09.859Z,17.78
2023-03-17T05:06:22.518Z,17.78
2023-03-17T05:07:25.852Z,17.76
2023-03-17T05:08:38.547Z,17.78
2023-03-17T05:09:51.838Z,17.75
2023-03-17T05:11:04.535Z,17.75
2023-03-17T05:12:08.361Z,17.76
2023-03-17T05:13:21.041Z,17.76
2023-03-17T05:14:34.352Z,17.76
2023-03-17T05:15:37.056Z,17.78
2023-03-17T05:16:50.380Z,17.78
2023-03-17T05:18:04.969Z,17.73
2023-03-17T05:19:08.824Z,17.72
2023-03-17T05:20:21.496Z,17.76
2023-03-17T05:21:34.855Z,17.75
2023-03-17T05:22:37.584Z,17.73
2023-03-17T05:23:51.886Z,17.75
2023-03-17T05:25:06.204Z,17.75
2023-03-17T05:26:09.834Z,17.76
2023-03-17T05:27:22.519Z,17.75
2023-03-17T05:28:36.360Z,17.75
2023-03-17T05:29:39.081Z,17.75
2023-03-17T05:30:52.438Z,17.75
2023-03-17T05:32:05.234Z,17.76
2023-03-17T05:33:08.857Z,17.76
2023-03-17T05:34:21.570Z,17.73
2023-03-17T05:35:34.864Z,17.73
2023-03-17T05:36:47.632Z,17.75
2023-03-17T05:37:51.404Z,17.75
2023-03-17T05:39:04.113Z,17.73
2023-03-17T05:40:17.852Z,17.76
2023-03-17T05:41:20.608Z,17.73
2023-03-17T05:42:33.824Z,17.75
2023-03-17T05:43:46.501Z,17.75
2023-03-17T05:44:50.373Z,17.78
2023-03-17T05:46:03.047Z,17.87
2023-03-17T05:47:16.377Z,18.0
2023-03-17T05:48:28.951Z,18.12
2023-03-17T05:49:32.366Z,18.24
2023-03-17T05:50:44.874Z,18.36
2023-03-17T05:51:58.360Z,18.48
2023-03-17T05:53:00.957Z,18.61
2023-03-17T05:54:14.365Z,18.74
2023-03-17T05:55:26.823Z,18.84
2023-03-17T05:56:30.348Z,18.94
2023-03-17T05:57:42.786Z,19.02
2023-03-17T05:58:55.883Z,19.12
2023-03-17T06:00:08.292Z,19.17
2023-03-17T06:01:31.413Z,19.25
2023-03-17T06:02:24.091Z,19.35
2023-03-17T06:03:37.391Z,19.4
2023-03-17T06:04:40.301Z,19.49
2023-03-17T06:05:53.371Z,19.55
2023-03-17T06:07:05.751Z,19.62
2023-03-17T06:08:18.875Z,19.66
2023-03-17T06:09:21.305Z,19.68
2023-03-17T06:10:34.858Z,19.71
2023-03-17T06:11:47.245Z,19.8
2023-03-17T06:13:10.366Z,19.81
2023-03-17T06:14:02.915Z,19.86
2023-03-17T06:15:15.853Z,19.87
2023-03-17T06:16:28.161Z,19.94
2023-03-17T06:17:31.349Z,19.97
2023-03-17T06:18:44.013Z,20.01
2023-03-17T06:19:57.429Z,20.06
2023-03-17T06:20:59.846Z,20.1
2023-03-17T06:22:12.853Z,20.11
2023-03-17T06:23:25.157Z,20.14
2023-03-17T06:24:38.353Z,20.15
2023-03-17T06:25:40.769Z,20.19
2023-03-17T06:26:53.897Z,20.21
2023-03-17T06:28:06.260Z,20.21
2023-03-17T06:29:29.382Z,20.22
2023-03-17T06:30:21.910Z,20.25
2023-03-17T06:31:34.924Z,20.25
2023-03-17T06:32:47.364Z,20.27
2023-03-17T06:33:50.881Z,20.25
2023-03-17T06:35:03.213Z,19.33
2023-03-17T06:36:16.402Z,18.27
2023-03-17T06:37:28.974Z,17.55
2023-03-17T06:38:32.397Z,17.0
2023-03-17T06:39:44.814Z,16.67
2023-03-17T06:40:58.109Z,16.43
2023-03-17T06:42:00.724Z,16.18
2023-03-17T06:43:13.882Z,15.74
2023-03-17T06:44:26.416Z,15.55
2023-03-17T06:45:39.883Z,15.47
2023-03-17T06:46:42.570Z,15.43
2023-03-17T06:47:55.866Z,15.26
2023-03-17T06:49:08.473Z,14.9
2023-03-17T06:50:21.898Z,14.56
2023-03-17T06:51:24.576Z,14.37
2023-03-17T06:52:37.894Z,14.39
2023-03-17T06:53:50.591Z,14.46
2023-03-17T06:54:53.899Z,14.59
2023-03-17T06:56:06.577Z,14.52
2023-03-17T06:57:19.996Z,14.62
2023-03-17T06:58:32.667Z,14.8
2023-03-17T06:59:36.396Z,14.89
2023-03-17T07:00:49.163Z,14.87
2023-03-17T07:02:02.962Z,14.84
2023-03-17T07:03:06.850Z,14.56
2023-03-17T07:04:20.382Z,14.65
2023-03-17T07:05:33.510Z,14.8
2023-03-17T07:06:56.929Z,14.83
2023-03-17T07:07:49.765Z,14.92
2023-03-17T07:09:03.391Z,15.06
2023-03-17T07:10:16.062Z,14.84
2023-03-17T07:11:19.852Z,14.66
2023-03-17T07:12:32.526Z,14.31
2023-03-17T07:13:45.885Z,14.28
2023-03-17T07:15:09.371Z,14.17
2023-03-17T07:16:03.218Z,13.98
2023-03-17T07:17:16.840Z,13.84
2023-03-17T07:18:20.373Z,13.81
2023-03-17T07:19:33.104Z,13.86
2023-03-17T07:20:47.215Z,13.87
2023-03-17T07:21:59.913Z,13.86
2023-03-17T07:23:13.371Z,13.8
2023-03-17T07:24:16.192Z,13.67
2023-03-17T07:25:30.219Z,13.66
2023-03-17T07:26:33.194Z,13.62
2023-03-17T07:27:46.906Z,13.48
2023-03-17T07:28:59.657Z,13.57
2023-03-17T07:30:13.461Z,13.49
2023-03-17T07:31:16.392Z,13.63
2023-03-17T07:32:29.925Z,14.01
2023-03-17T07:33:42.705Z,14.39
2023-03-17T07:34:46.389Z,14.76
2023-03-17T07:35:59.112Z,15.14
2023-03-17T07:37:12.877Z,15.47
2023-03-17T07:38:25.613Z,15.81
2023-03-17T07:39:29.424Z,16.1
2023-03-17T07:40:42.056Z,16.37
2023-03-17T07:41:55.428Z,16.61
2023-03-17T07:42:58.160Z,16.87
2023-03-17T07:44:11.477Z,17.08
2023-03-17T07:45:43.933Z,17.27
2023-03-17T07:46:57.916Z,17.45
2023-03-17T07:47:40.708Z,17.62
2023-03-17T07:49:14.384Z,17.8
2023-03-17T07:50:07.058Z,17.97
2023-03-17T07:51:09.688Z,18.12
2023-03-17T07:52:22.934Z,18.24
2023-03-17T07:53:35.443Z,18.4
2023-03-17T07:54:49.484Z,18.48
2023-03-17T07:55:51.996Z,18.61
2023-03-17T07:57:05.447Z,18.71
2023-03-17T07:58:18.031Z,18.77
2023-03-17T07:59:21.406Z,18.87
2023-03-17T08:00:34.437Z,18.94
2023-03-17T08:01:48.424Z,19.02
2023-03-17T08:03:06.967Z,19.09
2023-03-17T08:04:22.894Z,19.19
2023-03-17T08:05:15.508Z,19.23
2023-03-17T08:06:29.074Z,19.3
2023-03-17T08:07:31.568Z,19.36
2023-03-17T08:08:45.144Z,19.42
2023-03-17T08:09:57.586Z,19.49
2023-03-17T08:11:00.905Z,19.53
2023-03-17T08:12:13.327Z,19.57
2023-03-17T08:13:26.421Z,19.6
2023-03-17T08:14:38.846Z,19.67
2023-03-17T08:15:42.396Z,19.7
2023-03-17T08:16:54.887Z,19.74
2023-03-17T08:18:08.441Z,19.76
2023-03-17T08:19:10.884Z,19.81
2023-03-17T08:20:23.947Z,19.84
2023-03-17T08:21:56.281Z,19.86
2023-03-17T08:22:49.986Z,19.91
2023-03-17T08:23:52.432Z,19.94
2023-03-17T08:25:05.419Z,19.98
2023-03-17T08:26:17.870Z,20.06
2023-03-17T08:28:40.386Z,20.08
2023-03-17T08:29:42.853Z,20.11
2023-03-17T08:31:16.088Z,20.14
2023-03-17T08:32:08.801Z,20.15
2023-03-17T08:33:11.435Z,20.18
2023-03-17T08:34:24.978Z,20.21
2023-03-17T08:35:37.483Z,20.24
2023-03-17T08:36:41.000Z,20.28
2023-03-17T08:37:56.150Z,20.31
2023-03-17T08:39:09.510Z,20.34
2023-03-17T08:40:51.526Z,20.34
2023-03-17T08:41:24.995Z,20.39
2023-03-17T08:42:37.328Z,20.42
2023-03-17T08:43:40.520Z,20.45
2023-03-17T08:44:52.876Z,20.49
2023-03-17T08:46:06.108Z,20.49
2023-03-17T08:47:18.461Z,20.55
2023-03-17T08:48:21.993Z,20.57
2023-03-17T08:49:34.305Z,20.58
2023-03-17T08:50:47.504Z,20.61
2023-03-17T08:51:49.929Z,20.62
2023-03-17T08:53:03.374Z,20.65
2023-03-17T08:54:15.870Z,20.65
2023-03-17T08:55:28.973Z,20.68
2023-03-17T08:56:31.457Z,20.69
2023-03-17T08:57:44.530Z,20.72
2023-03-17T08:58:56.921Z,20.69
2023-03-17T09:00:00.038Z,20.7
2023-03-17T09:01:12.384Z,20.7
2023-03-17T09:02:25.569Z,20.73
2023-03-17T09:03:37.969Z,20.75
2023-03-17T09:04:41.020Z,20.75
2023-03-17T09:05:53.341Z,20.78
2023-03-17T09:07:16.013Z,20.76
2023-03-17T09:08:08.562Z,20.8
2023-03-17T09:09:22.006Z,20.79
2023-03-17T09:10:44.548Z,20.82
2023-03-17T09:11:47.988Z,20.83
2023-03-17T09:12:50.384Z,20.85
2023-03-17T09:14:03.613Z,20.86
2023-03-17T09:15:15.951Z,20.89
2023-03-17T09:16:19.033Z,20.89
2023-03-17T09:17:31.487Z,20.88
2023-03-17T09:18:44.523Z,20.89
2023-03-17T09:19:56.855Z,20.92
2023-03-17T09:21:00.027Z,20.9
2023-03-17T09:22:12.308Z,20.95
2023-03-17T09:23:25.482Z,20.99
2023-03-17T09:24:37.901Z,21.0
2023-03-17T09:25:41.033Z,21.01
2023-03-17T09:26:53.306Z,21.06
2023-03-17T09:28:06.577Z,21.06
2023-03-17T09:29:09.047Z,21.1
2023-03-17T09:30:21.998Z,21.13
2023-03-17T09:31:34.359Z,21.14
2023-03-17T09:32:47.589Z,21.17
2023-03-17T09:33:50.065Z,21.21
2023-03-17T09:35:03.052Z,21.21
2023-03-17T09:36:15.373Z,21.27
2023-03-17T09:37:19.030Z,21.29
2023-03-17T09:38:31.261Z,21.29
2023-03-17T09:39:45.002Z,21.34
2023-03-17T09:40:47.412Z,21.34
2023-03-17T09:42:00.525Z,21.4
2023-03-17T09:43:12.781Z,21.43
2023-03-17T09:44:26.027Z,21.44
2023-03-17T09:45:28.369Z,21.46
2023-03-17T09:46:41.554Z,21.48
2023-03-17T09:47:53.803Z,21.48
2023-03-17T09:49:06.997Z,21.51
2023-03-17T09:50:09.331Z,21.55
2023-03-17T09:51:22.520Z,21.58
2023-03-17T09:52:34.792Z,21.58
2023-03-17T09:53:38.030Z,21.61
2023-03-17T09:54:50.269Z,21.61
2023-03-17T09:56:03.498Z,21.64
2023-03-17T09:57:15.773Z,21.64
2023-03-17T09:58:19.031Z,21.67
2023-03-17T09:59:31.352Z,21.68
2023-03-17T10:00:44.558Z,21.7
2023-03-17T10:01:46.970Z,21.74
2023-03-17T10:02:59.991Z,21.71
2023-03-17T10:04:12.341Z,21.72
2023-03-17T10:05:25.584Z,21.75
2023-03-17T10:06:27.997Z,21.75
2023-03-17T10:07:41.054Z,21.77
2023-03-17T10:08:53.270Z,21.78
2023-03-17T10:09:56.521Z,21.8
2023-03-17T10:11:08.753Z,21.84
2023-03-17T10:12:22.002Z,21.84
2023-03-17T10:13:34.271Z,21.85
2023-03-17T10:14:37.489Z,21.87
2023-03-17T10:15:49.884Z,21.9
2023-03-17T10:17:03.036Z,21.88
2023-03-17T10:18:05.394Z,21.9
2023-03-17T10:19:18.527Z,21.92
2023-03-17T10:20:30.744Z,21.95
2023-03-17T10:21:43.579Z,21.97
2023-03-17T10:22:45.900Z,21.98
2023-03-17T10:23:59.010Z,21.99
2023-03-17T10:25:11.212Z,22.02
2023-03-17T10:26:24.046Z,22.05
2023-03-17T10:27:26.547Z,22.08
2023-03-17T10:28:39.579Z,22.09
2023-03-17T10:29:51.878Z,22.09
2023-03-17T10:30:55.021Z,22.12
2023-03-17T10:32:07.172Z,22.18
2023-03-17T10:33:20.022Z,22.19
2023-03-17T10:34:32.222Z,22.22
2023-03-17T10:35:35.577Z,22.22
2023-03-17T10:36:47.718Z,22.28
2023-03-17T10:38:13.819Z,22.32
2023-03-17T10:39:06.657Z,22.36
2023-03-17T10:40:19.774Z,22.39
2023-03-17T10:41:32.024Z,22.42
2023-03-17T10:42:35.230Z,22.45
2023-03-17T10:43:47.461Z,22.49
2023-03-17T10:45:00.547Z,22.5
2023-03-17T10:46:02.957Z,22.53
2023-03-17T10:47:16.080Z,22.57
2023-03-17T10:48:28.862Z,22.59
2023-03-17T10:49:42.842Z,22.62
2023-03-17T10:50:45.665Z,22.62
2023-03-17T10:51:54.048Z,22.62
2023-03-17T10:53:25.928Z,22.64
2023-03-17T10:54:19.809Z,22.66
2023-03-17T10:55:23.866Z,22.67
2023-03-17T10:56:36.541Z,22.7
2023-03-17T10:57:48.660Z,22.74
2023-03-17T10:58:51.566Z,22.76
2023-03-17T11:00:03.730Z,22.8
2023-03-17T11:01:16.609Z,22.81
2023-03-17T11:02:28.911Z,22.86
2023-03-17T11:03:42.094Z,22.86
2023-03-17T11:04:44.388Z,22.84
2023-03-17T11:05:57.553Z,22.88
2023-03-17T11:06:59.831Z,22.9
2023-03-17T11:08:12.581Z,22.94
2023-03-17T11:09:24.752Z,22.94
2023-03-17T11:10:37.668Z,22.94
2023-03-17T11:11:39.861Z,22.94
2023-03-17T11:12:55.048Z,22.97
2023-03-17T11:14:07.178Z,22.97
2023-03-17T11:15:10.053Z,22.96
2023-03-17T11:16:22.037Z,22.97
2023-03-17T11:17:35.081Z,22.97
2023-03-17T11:18:37.212Z,23.0
2023-03-17T11:19:50.044Z,23.0
2023-03-17T11:21:21.795Z,23.03
2023-03-17T11:22:34.529Z,23.01
2023-03-17T11:23:17.106Z,23.0
2023-03-17T11:24:30.822Z,23.03
2023-03-17T11:25:44.563Z,23.04
2023-03-17T11:26:46.765Z,23.08
2023-03-17T11:27:59.536Z,23.07
2023-03-17T11:29:11.645Z,23.07
2023-03-17T11:30:24.545Z,23.08
2023-03-17T11:31:26.959Z,23.1
2023-03-17T11:32:40.101Z,23.1
2023-03-17T11:33:52.459Z,23.1
2023-03-17T11:34:55.560Z,23.11
2023-03-17T11:36:07.709Z,23.13
2023-03-17T11:37:20.558Z,23.14
2023-03-17T11:38:32.687Z,23.14
2023-03-17T11:39:35.525Z,23.13
2023-03-17T11:40:47.562Z,23.14
2023-03-17T11:42:00.567Z,23.14
2023-03-17T11:43:12.722Z,23.14
2023-03-17T11:44:15.569Z,23.15
2023-03-17T11:45:27.686Z,23.15
2023-03-17T11:46:40.575Z,23.18
2023-03-17T11:47:52.714Z,23.17
2023-03-17T11:48:55.548Z,23.18
2023-03-17T11:50:07.687Z,23.18
2023-03-17T11:51:20.549Z,23.18
2023-03-17T11:52:22.792Z,23.2
2023-03-17T11:53:35.559Z,23.2
2023-03-17T11:54:47.685Z,23.18
2023-03-17T11:56:00.586Z,23.21
2023-03-17T11:57:02.872Z,23.18
2023-03-17T11:58:15.564Z,23.2
2023-03-17T11:59:27.690Z,23.18
2023-03-17T12:01:49.574Z,23.2
2023-03-17T12:01:52.711Z,23.14
2023-03-17T12:02:54.870Z,23.18
2023-03-17T12:04:07.663Z,23.17
2023-03-17T12:05:19.900Z,23.2
2023-03-17T12:06:23.089Z,23.2
2023-03-17T12:07:35.142Z,23.2
2023-03-17T12:08:48.051Z,23.21
2023-03-17T12:09:50.331Z,23.21
2023-03-17T12:11:03.046Z,23.21
2023-03-17T12:12:16.220Z,23.23
2023-03-17T12:13:29.532Z,23.24
2023-03-17T12:14:31.787Z,23.25
2023-03-17T12:15:44.654Z,23.27
2023-03-17T12:16:56.812Z,23.28
2023-03-17T12:18:00.341Z,23.3
2023-03-17T12:19:22.464Z,23.31
2023-03-17T12:20:25.552Z,23.34
2023-03-17T12:21:27.789Z,23.34
2023-03-17T12:23:39.591Z,23.38
2023-03-17T12:23:52.492Z,23.41
2023-03-17T12:25:34.111Z,23.42
2023-03-17T12:26:17.599Z,23.47
2023-03-17T12:27:19.842Z,23.52
2023-03-17T12:28:32.593Z,23.56
2023-03-17T12:30:04.246Z,23.58
2023-03-17T12:32:16.562Z,23.58
2023-03-17T12:32:19.697Z,23.62
2023-03-17T12:33:12.097Z,23.64
2023-03-17T12:34:44.569Z,23.68
2023-03-17T12:35:36.845Z,23.69
2023-03-17T12:36:39.092Z,23.71
2023-03-17T12:37:52.060Z,23.74
2023-03-17T12:39:04.092Z,23.74
2023-03-17T12:40:07.103Z,23.75
2023-03-17T12:41:19.252Z,23.76
2023-03-17T12:42:32.131Z,23.74
2023-03-17T12:43:44.130Z,23.71
2023-03-17T12:44:47.231Z,23.71
2023-03-17T12:46:00.857Z,23.69
2023-03-17T12:47:14.132Z,23.69
2023-03-17T12:48:16.405Z,23.68
2023-03-17T12:50:38.188Z,23.65
2023-03-17T12:51:30.425Z,23.64
2023-03-17T12:51:43.400Z,23.65
2023-03-17T12:52:56.090Z,23.68
2023-03-17T12:54:08.188Z,23.69
2023-03-17T12:55:21.055Z,23.71
2023-03-17T12:56:23.299Z,23.75
2023-03-17T12:57:36.098Z,23.75
2023-03-17T12:59:07.712Z,23.75
2023-03-17T13:00:01.077Z,23.72
2023-03-17T13:01:03.278Z,23.75
2023-03-17T13:02:26.114Z,23.74
2023-03-17T13:03:28.416Z,23.72
2023-03-17T13:04:31.579Z,23.74
2023-03-17T13:05:43.645Z,23.72
2023-03-17T13:07:00.080Z,23.74
2023-03-17T13:08:12.028Z,23.74
2023-03-17T13:09:15.106Z,23.72
2023-03-17T13:10:27.191Z,23.74
2023-03-17T13:11:30.072Z,23.74
2023-03-17T13:12:42.236Z,23.74
2023-03-17T13:13:55.073Z,23.72
2023-03-17T13:15:07.171Z,23.74
2023-03-17T13:16:10.731Z,23.72
2023-03-17T13:17:52.317Z,23.74
2023-03-17T13:18:35.619Z,23.72
2023-03-17T13:19:37.847Z,23.74
2023-03-17T13:20:50.590Z,23.72
2023-03-17T13:22:12.645Z,23.71
2023-03-17T13:23:15.569Z,23.74
2023-03-17T13:24:18.141Z,23.74
2023-03-17T13:25:31.281Z,23.74
2023-03-17T13:26:43.500Z,23.71
2023-03-17T13:27:56.589Z,23.72
2023-03-17T13:28:58.813Z,23.74
2023-03-17T13:30:11.576Z,23.75
2023-03-17T13:31:23.888Z,23.72
2023-03-17T13:32:27.175Z,23.74
2023-03-17T13:33:39.369Z,23.74
2023-03-17T13:34:52.604Z,23.75
2023-03-17T13:36:04.668Z,23.76
2023-03-17T13:37:08.123Z,23.74
2023-03-17T13:38:20.275Z,23.75
2023-03-17T13:39:33.082Z,23.74
2023-03-17T13:40:35.344Z,23.75
2023-03-17T13:41:48.103Z,23.74
2023-03-17T13:43:00.111Z,23.75
2023-03-17T13:44:13.083Z,23.75
2023-03-17T13:45:15.443Z,23.74
2023-03-17T13:46:28.126Z,23.72
2023-03-17T13:47:40.276Z,23.71
2023-03-17T13:48:53.082Z,23.69
2023-03-17T13:49:55.549Z,23.71
2023-03-17T13:51:08.594Z,23.71
2023-03-17T13:52:20.631Z,23.68
2023-03-17T13:53:23.615Z,23.68
2023-03-17T13:54:35.707Z,23.66
2023-03-17T13:55:48.651Z,23.65
2023-03-17T13:57:00.810Z,23.68
2023-03-17T13:58:03.574Z,23.65
2023-03-17T13:59:45.284Z,23.64
2023-03-17T14:00:28.848Z,23.62
2023-03-17T14:01:40.933Z,23.64
2023-03-17T14:02:44.121Z,23.62
2023-03-17T14:03:56.286Z,23.64
2023-03-17T14:05:09.083Z,23.62
2023-03-17T14:06:11.432Z,23.61
2023-03-17T14:07:24.101Z,23.64
2023-03-17T14:08:36.324Z,23.62
2023-03-17T14:10:28.580Z,23.62
2023-03-17T14:10:51.384Z,23.62
2023-03-17T14:12:03.460Z,23.64
2023-03-17T14:13:16.174Z,23.64
2023-03-17T14:14:33.023Z,23.66
2023-03-17T14:15:36.584Z,23.68
2023-03-17T14:16:48.663Z,23.66
2023-03-17T14:17:51.620Z,23.66
2023-03-17T14:19:03.630Z,23.68
2023-03-17T14:20:36.092Z,23.66
2023-03-17T14:21:28.443Z,23.65
2023-03-17T14:22:30.535Z,23.64
2023-03-17T14:23:43.564Z,23.66
2023-03-17T14:24:55.631Z,23.65
2023-03-17T14:26:08.613Z,23.68
2023-03-17T14:27:10.842Z,23.65
2023-03-17T14:28:23.627Z,23.66
2023-03-17T14:29:35.721Z,23.65
2023-03-17T14:30:49.113Z,23.64
2023-03-17T14:31:51.307Z,23.62
2023-03-17T14:33:04.201Z,23.62
2023-03-17T14:34:16.357Z,23.62
2023-03-17T14:35:19.619Z,23.59
2023-03-17T14:36:31.719Z,23.61
2023-03-17T14:37:44.657Z,23.61
2023-03-17T14:38:56.764Z,23.58
2023-03-17T14:39:59.598Z,23.56
2023-03-17T14:41:11.680Z,23.55
2023-03-17T14:42:24.585Z,23.56
2023-03-17T14:43:26.825Z,23.54
2023-03-17T14:44:59.097Z,23.54
2023-03-17T14:45:51.539Z,23.55
2023-03-17T14:47:34.082Z,23.49
2023-03-17T14:48:06.767Z,23.54
2023-03-17T14:49:18.874Z,23.54
2023-03-17T14:50:31.665Z,23.55
2023-03-17T14:51:43.947Z,23.54
2023-03-17T14:52:47.100Z,23.54
2023-03-17T14:53:59.216Z,23.55
2023-03-17T14:55:12.236Z,23.54
2023-03-17T14:56:24.476Z,23.48
2023-03-17T14:57:27.900Z,23.48
2023-03-17T14:58:50.959Z,23.48
2023-03-17T14:59:54.116Z,23.44
2023-03-17T15:00:56.947Z,23.45
2023-03-17T15:02:11.165Z,23.42
2023-03-17T15:03:23.989Z,23.44
2023-03-17T15:04:28.740Z,23.41
2023-03-17T15:05:42.016Z,23.38
2023-03-17T15:06:55.125Z,23.39
2023-03-17T15:07:57.431Z,23.35
2023-03-17T15:09:10.595Z,23.37
2023-03-17T15:10:22.772Z,23.35